createdAt,value
2017-07-08T19:01:02.168Z,51.20
2017-07-08T19:03:29.341Z,51.20
2017-07-08T19:05:55.449Z,52.40
2017-07-08T19:08:21.559Z,53.60
2017-07-08T19:10:48.408Z,54.30
2017-07-08T19:13:15.246Z,54.40
2017-07-08T19:15:42.107Z,54.60
2017-07-08T19:18:08.942Z,55.00
2017-07-08T19:20:35.809Z,55.10
2017-07-08T19:23:01.933Z,55.10
2017-07-08T19:44:51.892Z,50.90
2017-07-08T19:47:19.831Z,50.20
2017-07-08T19:49:47.964Z,50.10
2017-07-08T19:55:29.278Z,47.00
2017-07-08T20:00:48.464Z,46.50
2017-07-08T20:03:20.597Z,46.50
2017-07-08T20:08:57.306Z,46.20
2017-07-08T20:11:38.635Z,47.90
2017-07-08T20:14:12.034Z,47.40
2017-07-08T20:16:38.190Z,46.60
2017-07-08T20:19:05.336Z,46.20
2017-07-08T20:24:28.699Z,48.00
2017-07-08T20:27:11.951Z,48.20
2017-07-08T20:29:38.032Z,49.80
2017-07-08T20:32:06.955Z,48.80
2017-07-08T20:37:40.256Z,48.90
2017-07-08T20:40:07.417Z,50.20
2017-07-08T20:42:44.189Z,50.30
2017-07-08T20:45:16.316Z,49.10
2017-07-08T20:47:55.581Z,49.70
2017-07-08T20:50:21.671Z,51.00
2017-07-08T20:53:08.206Z,51.00
2017-07-08T20:55:56.385Z,51.10
2017-07-08T20:58:33.426Z,51.50
2017-07-08T21:01:06.273Z,50.10
2017-07-08T21:03:39.361Z,50.60
2017-07-08T21:06:05.441Z,50.70
2017-07-08T21:08:45.865Z,51.60
2017-07-08T21:11:19.081Z,51.10
2017-07-08T21:13:56.497Z,51.10
2017-07-08T21:16:44.343Z,51.00
2017-07-08T21:19:19.425Z,50.90
2017-07-08T21:24:51.477Z,52.00
2017-07-08T21:27:36.910Z,53.00
2017-07-08T21:30:02.968Z,53.60
2017-07-08T21:32:29.120Z,51.80
2017-07-08T21:35:02.739Z,51.80
2017-07-08T21:37:32.104Z,51.80
2017-07-08T21:39:58.315Z,52.50
2017-07-08T21:42:25.481Z,52.40
2017-07-08T21:44:54.860Z,52.40
2017-07-08T21:47:27.030Z,51.60
2017-07-08T21:52:46.045Z,52.70
2017-07-08T21:55:12.078Z,52.60
2017-07-08T21:57:39.166Z,53.20
2017-07-08T22:00:19.620Z,53.20
2017-07-08T22:02:45.632Z,53.30
2017-07-08T22:05:12.376Z,54.10
2017-07-08T22:07:39.146Z,54.90
2017-07-08T22:10:05.175Z,54.80
2017-07-08T22:12:31.219Z,54.50
2017-07-08T22:14:57.249Z,53.00
2017-07-08T22:17:23.353Z,53.20
2017-07-08T22:19:50.143Z,52.70
2017-07-08T22:22:16.179Z,52.60
2017-07-08T22:24:42.211Z,52.40
2017-07-08T22:27:08.315Z,52.40
2017-07-08T22:29:34.417Z,52.50
2017-07-08T22:32:01.227Z,53.30
2017-07-08T22:34:27.338Z,53.30
2017-07-08T22:36:53.425Z,52.70
2017-07-08T22:39:20.220Z,52.70
2017-07-08T22:41:46.286Z,52.70
2017-07-08T22:44:13.111Z,53.20
2017-07-08T22:46:39.164Z,53.10
2017-07-08T22:49:05.976Z,53.10
2017-07-08T22:51:32.021Z,53.00
2017-07-08T22:53:58.109Z,52.10
2017-07-08T22:56:24.157Z,52.00
2017-07-08T22:58:50.232Z,52.30
2017-07-08T23:01:16.275Z,52.40
2017-07-08T23:03:43.127Z,52.80
2017-07-08T23:09:00.488Z,52.70
2017-07-08T23:11:26.568Z,52.70
2017-07-08T23:14:03.093Z,53.50
2017-07-08T23:16:29.125Z,53.00
2017-07-08T23:18:55.216Z,51.90
2017-07-08T23:21:22.048Z,51.90
2017-07-08T23:23:48.137Z,51.90
2017-07-08T23:26:14.231Z,51.80
2017-07-08T23:28:40.293Z,52.10
2017-07-08T23:31:06.398Z,51.70
2017-07-08T23:33:32.460Z,52.10
2017-07-08T23:35:58.529Z,53.00
2017-07-08T23:38:24.632Z,52.40
2017-07-08T23:40:50.717Z,52.20
2017-07-08T23:43:17.496Z,52.70
2017-07-08T23:45:43.550Z,52.70
2017-07-08T23:48:09.577Z,52.70
2017-07-08T23:50:35.632Z,53.00
2017-07-08T23:53:02.418Z,52.60
2017-07-08T23:55:28.528Z,52.90
2017-07-08T23:57:55.297Z,52.80
